createdAt,value
2022-10-19T00:01:25.570Z,100381.97
2022-10-19T00:03:56.174Z,100384.22
2022-10-19T00:06:27.092Z,100382.53
2022-10-19T00:08:57.140Z,100379.13
2022-10-19T00:11:26.590Z,100373.78
2022-10-19T00:13:57.069Z,100376.19
2022-10-19T00:16:30.456Z,100377.72
2022-10-19T00:19:00.081Z,100378.00
2022-10-19T00:21:30.983Z,100370.97
2022-10-19T00:23:59.751Z,100385.34
2022-10-19T00:26:28.745Z,100378.28
2022-10-19T00:28:58.129Z,100378.84
2022-10-19T00:31:29.188Z,100382.66
2022-10-19T00:33:58.590Z,100374.28
2022-10-19T00:36:29.608Z,100377.97
2022-10-19T00:38:58.572Z,100379.09
2022-10-19T00:41:28.674Z,100383.88
2022-10-19T00:43:59.834Z,100383.00
2022-10-19T00:46:32.454Z,100379.59
2022-10-19T00:49:05.946Z,100382.44
2022-10-19T00:51:41.212Z,100374.84
2022-10-19T00:54:11.175Z,100376.34
2022-10-19T00:56:43.237Z,100388.91
2022-10-19T00:59:13.588Z,100385.50
2022-10-19T01:01:45.641Z,100386.63
2022-10-19T01:04:14.894Z,100377.75
2022-10-19T01:06:44.060Z,100390.31
2022-10-19T01:09:12.721Z,100379.59
2022-10-19T01:11:52.023Z,100378.59
2022-10-19T01:14:34.593Z,100375.72
2022-10-19T01:17:14.460Z,100379.38
2022-10-19T01:20:16.281Z,100380.81
2022-10-19T01:23:01.743Z,100375.00
2022-10-19T01:25:46.918Z,100379.25
2022-10-19T01:28:32.047Z,100374.00
2022-10-19T01:31:07.728Z,100370.16
2022-10-19T01:33:46.127Z,100373.81
2022-10-19T01:36:23.201Z,100370.16
2022-10-19T01:38:58.121Z,100367.75
2022-10-19T01:41:34.871Z,100381.03
2022-10-19T01:44:12.811Z,100384.81
2022-10-19T01:46:46.252Z,100378.28
2022-10-19T01:49:20.037Z,100379.13
2022-10-19T01:51:54.481Z,100382.19
2022-10-19T01:54:26.458Z,100384.41
2022-10-19T01:56:56.497Z,100386.00
2022-10-19T01:59:25.522Z,100381.63
2022-10-19T02:01:57.155Z,100384.16
2022-10-19T02:04:27.309Z,100385.41
2022-10-19T02:06:56.924Z,100398.59
2022-10-19T02:09:25.727Z,100388.78
2022-10-19T02:12:03.789Z,100386.38
2022-10-19T02:14:39.625Z,100389.78
2022-10-19T02:17:12.701Z,100387.03
2022-10-19T02:19:41.561Z,100376.44
2022-10-19T02:22:11.161Z,100388.88
2022-10-19T02:24:39.974Z,100381.78
2022-10-19T02:27:09.706Z,100382.78
2022-10-19T02:29:39.492Z,100383.50
2022-10-19T02:32:10.405Z,100379.72
2022-10-19T02:34:40.038Z,100381.72
2022-10-19T02:37:08.991Z,100390.81
2022-10-19T02:39:37.695Z,100387.66
2022-10-19T02:42:11.357Z,100391.06
2022-10-19T02:44:45.767Z,100395.47
2022-10-19T02:47:20.159Z,100390.63
2022-10-19T02:49:50.433Z,100394.56
2022-10-19T02:52:19.559Z,100398.34
2022-10-19T02:54:48.163Z,100401.03
2022-10-19T02:57:18.727Z,100402.59
2022-10-19T02:59:47.690Z,100407.44
2022-10-19T03:02:19.296Z,100400.94
2022-10-19T03:07:23.221Z,100405.69
2022-10-19T03:09:52.257Z,100413.97
2022-10-19T03:12:21.885Z,100420.06
2022-10-19T03:14:50.498Z,100411.19
2022-10-19T03:17:20.568Z,100430.16
2022-10-19T03:19:49.284Z,100426.63
2022-10-19T03:22:17.905Z,100421.88
2022-10-19T03:24:46.544Z,100424.31
2022-10-19T03:27:15.099Z,100429.81
2022-10-19T03:29:43.857Z,100426.53
2022-10-19T03:32:12.550Z,100425.41
2022-10-19T03:34:42.615Z,100424.69
2022-10-19T03:37:13.512Z,100427.50
2022-10-19T03:39:42.556Z,100437.97
2022-10-19T03:42:11.181Z,100432.34
2022-10-19T03:44:39.946Z,100435.41
2022-10-19T03:47:08.569Z,100443.56
2022-10-19T03:49:39.515Z,100445.78
2022-10-19T03:52:11.070Z,100437.75
2022-10-19T03:54:39.943Z,100451.38
2022-10-19T03:57:08.636Z,100451.75
2022-10-19T03:59:37.552Z,100447.97
2022-10-19T04:02:08.154Z,100462.59
2022-10-19T04:04:37.063Z,100474.25
2022-10-19T04:07:05.907Z,100469.84
2022-10-19T04:09:36.251Z,100469.03
2022-10-19T04:12:05.473Z,100472.31
2022-10-19T04:14:52.615Z,100478.59
2022-10-19T04:17:26.836Z,100481.28
2022-10-19T04:19:56.293Z,100477.84
2022-10-19T04:22:25.165Z,100483.84
2022-10-19T04:24:55.508Z,100478.34
2022-10-19T04:27:24.468Z,100487.56
2022-10-19T04:29:53.309Z,100490.75
2022-10-19T04:32:22.219Z,100491.97
2022-10-19T04:34:51.063Z,100494.00
2022-10-19T04:37:19.824Z,100500.94
2022-10-19T04:39:48.957Z,100500.28
2022-10-19T04:42:19.392Z,100503.28
2022-10-19T04:44:48.313Z,100508.13
2022-10-19T04:47:20.160Z,100512.50
2022-10-19T04:49:48.993Z,100513.75
2022-10-19T04:52:18.007Z,100507.66
2022-10-19T04:54:47.644Z,100519.50
2022-10-19T04:57:16.754Z,100521.94
2022-10-19T04:59:48.886Z,100520.13
2022-10-19T05:02:17.947Z,100533.03
2022-10-19T05:04:49.090Z,100529.44
2022-10-19T05:07:17.897Z,100534.78
2022-10-19T05:09:46.885Z,100518.56
2022-10-19T05:12:15.751Z,100535.03
2022-10-19T05:14:45.106Z,100551.56
2022-10-19T05:17:16.323Z,100551.66
2022-10-19T05:19:45.547Z,100557.03
2022-10-19T05:22:14.686Z,100562.91
2022-10-19T05:24:43.347Z,100561.59
2022-10-19T05:27:12.058Z,100565.47
2022-10-19T05:29:40.810Z,100570.91
2022-10-19T05:32:09.646Z,100568.97
2022-10-19T05:34:40.718Z,100577.53
2022-10-19T05:37:09.264Z,100583.47
2022-10-19T05:39:38.158Z,100586.16
2022-10-19T05:42:07.229Z,100594.38
2022-10-19T05:47:10.711Z,100601.44
2022-10-19T05:49:41.033Z,100589.88
2022-10-19T05:52:10.103Z,100606.84
2022-10-19T05:54:39.306Z,100611.88
2022-10-19T05:57:08.319Z,100608.16
2022-10-19T05:59:37.296Z,100611.66
2022-10-19T06:02:06.327Z,100610.91
2022-10-19T06:04:35.165Z,100624.78
2022-10-19T06:07:05.568Z,100617.75
2022-10-19T06:09:36.819Z,100625.75
2022-10-19T06:12:05.965Z,100636.28
2022-10-19T06:14:34.880Z,100637.47
2022-10-19T06:17:04.171Z,100642.03
2022-10-19T06:19:33.462Z,100644.59
2022-10-19T06:22:02.339Z,100643.66
2022-10-19T06:24:32.941Z,100645.25
2022-10-19T06:27:01.880Z,100645.97
2022-10-19T06:29:31.161Z,100659.00
2022-10-19T06:32:00.555Z,100653.66
2022-10-19T06:34:29.575Z,100657.84
2022-10-19T06:36:58.606Z,100670.19
2022-10-19T06:39:27.468Z,100664.13
2022-10-19T06:41:58.043Z,100662.31
2022-10-19T06:44:27.010Z,100667.44
2022-10-19T06:46:55.749Z,100677.03
2022-10-19T06:49:24.809Z,100686.94
2022-10-19T06:51:53.741Z,100674.06
2022-10-19T06:54:22.681Z,100664.97
2022-10-19T06:56:51.543Z,100684.91
2022-10-19T06:59:21.934Z,100688.75
2022-10-19T07:01:50.913Z,100690.66
2022-10-19T07:04:19.960Z,100689.69
2022-10-19T07:06:48.885Z,100689.59
2022-10-19T07:09:18.798Z,100695.94
2022-10-19T07:11:48.019Z,100704.13
2022-10-19T07:14:17.200Z,100710.09
2022-10-19T07:16:51.000Z,100713.53
2022-10-19T07:19:19.898Z,100718.56
2022-10-19T07:21:52.190Z,100715.34
2022-10-19T07:24:21.582Z,100721.63
2022-10-19T07:26:50.727Z,100727.06
2022-10-19T07:29:19.730Z,100730.38
2022-10-19T07:31:50.062Z,100738.06
2022-10-19T07:34:19.460Z,100735.09
2022-10-19T07:36:49.312Z,100739.50
2022-10-19T07:39:18.460Z,100743.13
2022-10-19T07:41:47.806Z,100737.38
2022-10-19T07:44:17.218Z,100737.84
2022-10-19T07:46:46.019Z,100743.16
2022-10-19T07:49:19.205Z,100748.50
2022-10-19T07:51:48.242Z,100738.19
2022-10-19T07:54:17.129Z,100743.44
2022-10-19T07:56:45.959Z,100747.94
2022-10-19T07:59:16.478Z,100756.47
2022-10-19T08:01:45.707Z,100759.06
2022-10-19T08:07:05.144Z,100770.81
2022-10-19T08:09:52.300Z,100769.53
2022-10-19T08:12:22.204Z,100766.97
2022-10-19T08:14:51.540Z,100776.56
2022-10-19T08:17:20.398Z,100772.97
2022-10-19T08:19:51.089Z,100776.16
2022-10-19T08:22:20.081Z,100779.56
2022-10-19T08:24:48.902Z,100771.06
2022-10-19T08:27:17.650Z,100778.63
2022-10-19T08:29:46.428Z,100786.00
2022-10-19T08:32:15.258Z,100788.78
2022-10-19T08:34:43.908Z,100793.03
2022-10-19T08:37:26.025Z,100791.34
2022-10-19T08:40:03.361Z,100796.44
2022-10-19T08:42:48.051Z,100799.13
2022-10-19T08:48:26.500Z,100807.06
2022-10-19T08:50:56.179Z,100818.06
2022-10-19T08:53:37.308Z,100822.31
2022-10-19T08:56:12.436Z,100817.31
2022-10-19T08:59:01.759Z,100819.25
2022-10-19T09:01:40.898Z,100821.50
2022-10-19T09:04:16.767Z,100823.19
2022-10-19T09:06:58.730Z,100831.75
2022-10-19T09:09:31.479Z,100825.56
2022-10-19T09:12:06.267Z,100838.59
2022-10-19T09:14:40.250Z,100835.50
2022-10-19T09:17:14.200Z,100852.56
2022-10-19T09:19:43.126Z,100854.31
2022-10-19T09:22:20.629Z,100859.66
2022-10-19T09:24:53.748Z,100853.63
2022-10-19T09:27:24.934Z,100849.16
2022-10-19T09:29:57.569Z,100856.97
2022-10-19T09:32:31.780Z,100863.16
2022-10-19T09:35:03.285Z,100859.09
2022-10-19T09:37:34.363Z,100869.41
2022-10-19T09:40:07.167Z,100871.88
2022-10-19T09:42:37.384Z,100859.94
2022-10-19T09:45:18.966Z,100863.38
2022-10-19T09:47:49.933Z,100866.91
2022-10-19T09:50:21.871Z,100865.38
2022-10-19T09:52:53.101Z,100870.84
2022-10-19T09:55:31.024Z,100880.78
2022-10-19T09:58:05.327Z,100883.13
2022-10-19T10:00:37.320Z,100884.28
2022-10-19T10:03:07.827Z,100885.81
2022-10-19T10:05:38.350Z,100889.19
2022-10-19T10:08:15.301Z,100887.00
2022-10-19T10:10:48.235Z,100892.84
2022-10-19T10:13:20.099Z,100890.19
2022-10-19T10:15:52.312Z,100895.31
2022-10-19T10:18:21.430Z,100887.75
2022-10-19T10:21:03.870Z,100897.38
2022-10-19T10:23:36.651Z,100902.28
2022-10-19T10:26:18.309Z,100904.00
2022-10-19T10:28:53.284Z,100910.19
2022-10-19T10:31:26.456Z,100905.53
2022-10-19T10:34:06.399Z,100911.03
2022-10-19T10:36:46.049Z,100918.31
2022-10-19T10:39:18.329Z,100914.69
2022-10-19T10:41:50.402Z,100916.94
2022-10-19T10:44:22.947Z,100912.34
2022-10-19T10:46:57.230Z,100924.44
2022-10-19T10:49:29.843Z,100928.16
2022-10-19T10:52:01.860Z,100926.00
2022-10-19T10:54:32.008Z,100933.94
2022-10-19T10:57:13.329Z,100933.09
2022-10-19T10:59:54.265Z,100932.03
2022-10-19T11:02:33.830Z,100931.94
2022-10-19T11:05:09.087Z,100933.97
2022-10-19T11:07:41.963Z,100938.03
2022-10-19T11:10:21.359Z,100939.09
2022-10-19T11:13:00.101Z,100942.84
2022-10-19T11:15:35.350Z,100942.63
2022-10-19T11:18:17.201Z,100943.38
2022-10-19T11:20:53.286Z,100945.72
2022-10-19T11:23:41.585Z,100943.72
2022-10-19T11:26:21.702Z,100939.53
2022-10-19T11:29:04.904Z,100951.06
2022-10-19T11:31:43.098Z,100956.19
2022-10-19T11:34:29.100Z,100953.66
2022-10-19T11:37:06.111Z,100954.06
2022-10-19T11:39:52.351Z,100957.69
2022-10-19T11:42:36.090Z,100951.38
2022-10-19T11:45:17.309Z,100959.75
2022-10-19T11:47:55.218Z,100956.47
2022-10-19T11:50:37.920Z,100953.44
2022-10-19T11:53:15.344Z,100959.69
2022-10-19T11:55:52.680Z,100957.22
2022-10-19T11:58:39.378Z,100971.00
2022-10-19T12:01:17.989Z,100974.00
2022-10-19T12:04:17.963Z,100978.72
2022-10-19T12:06:57.482Z,100979.34
2022-10-19T12:09:41.291Z,100973.69
2022-10-19T12:12:32.025Z,100974.00
2022-10-19T12:15:26.389Z,100975.50
2022-10-19T12:17:59.919Z,100974.97
2022-10-19T12:20:36.311Z,100974.13
2022-10-19T12:23:25.069Z,100980.00
2022-10-19T12:25:56.511Z,100979.38
2022-10-19T12:28:30.473Z,100975.09
2022-10-19T12:31:00.471Z,100984.28
2022-10-19T12:33:38.510Z,100987.50
2022-10-19T12:36:17.813Z,100982.03
2022-10-19T12:39:00.953Z,100986.63
2022-10-19T12:41:37.211Z,100981.06
2022-10-19T12:44:21.121Z,100995.06
2022-10-19T12:46:56.428Z,100989.09
2022-10-19T12:49:49.030Z,101000.44
2022-10-19T12:52:36.344Z,100992.53
2022-10-19T12:55:28.149Z,101000.78
2022-10-19T12:58:03.714Z,100999.69
2022-10-19T13:00:35.448Z,101006.34
2022-10-19T13:03:08.559Z,101002.38
2022-10-19T13:05:40.461Z,101009.75
2022-10-19T13:08:12.346Z,101007.19
2022-10-19T13:11:03.607Z,101011.47
2022-10-19T13:13:56.812Z,101015.53
2022-10-19T13:16:57.000Z,101012.31
2022-10-19T13:19:26.372Z,101019.91
2022-10-19T13:22:24.732Z,101021.41
2022-10-19T13:25:28.775Z,101022.56
2022-10-19T13:28:37.241Z,101037.78
2022-10-19T13:31:24.752Z,101034.47
2022-10-19T13:33:57.407Z,101036.41
2022-10-19T13:36:27.218Z,101033.59
2022-10-19T13:39:16.483Z,101032.63
2022-10-19T13:41:51.663Z,101035.50
2022-10-19T13:44:35.677Z,101039.22
2022-10-19T13:47:28.656Z,101045.75
2022-10-19T13:50:18.180Z,101034.94
2022-10-19T13:53:11.857Z,101046.09
2022-10-19T13:55:59.826Z,101052.06
2022-10-19T13:59:13.418Z,101050.34
2022-10-19T14:01:55.650Z,101057.59
2022-10-19T14:04:36.506Z,101062.94
2022-10-19T14:07:10.564Z,101060.81
2022-10-19T14:10:16.316Z,101068.41
2022-10-19T14:12:48.717Z,101071.31
2022-10-19T14:15:23.823Z,101069.16
2022-10-19T14:17:52.902Z,101074.41
2022-10-19T14:20:34.523Z,101069.25
2022-10-19T14:23:22.259Z,101083.25
2022-10-19T14:25:52.965Z,101080.66
2022-10-19T14:28:24.883Z,101088.81
2022-10-19T14:30:59.259Z,101100.84
2022-10-19T14:33:29.923Z,101095.59
2022-10-19T14:35:58.686Z,101092.38
2022-10-19T14:38:34.798Z,101096.19
2022-10-19T14:41:04.108Z,101098.41
2022-10-19T14:43:36.123Z,101110.63
2022-10-19T14:46:12.923Z,101101.88
2022-10-19T14:48:45.582Z,101109.13
2022-10-19T14:51:30.265Z,101104.16
2022-10-19T14:54:04.895Z,101104.56
2022-10-19T14:56:38.780Z,101110.28
2022-10-19T14:59:21.753Z,101115.06
2022-10-19T15:01:51.873Z,101122.41
2022-10-19T15:04:22.672Z,101126.13
2022-10-19T15:06:51.615Z,101136.81
2022-10-19T15:09:36.955Z,101131.66
2022-10-19T15:12:09.374Z,101129.56
2022-10-19T15:14:40.247Z,101137.84
2022-10-19T15:17:25.113Z,101129.75
2022-10-19T15:19:55.889Z,101133.94
2022-10-19T15:22:40.148Z,101133.34
2022-10-19T15:25:36.963Z,101141.81
2022-10-19T15:28:23.412Z,101144.88
2022-10-19T15:31:07.993Z,101156.94
2022-10-19T15:33:41.727Z,101151.03
2022-10-19T15:36:17.329Z,101154.84
2022-10-19T15:38:47.507Z,101161.19
2022-10-19T15:41:28.911Z,101161.56
2022-10-19T15:44:00.009Z,101166.13
2022-10-19T15:46:32.368Z,101170.03
2022-10-19T15:49:04.656Z,101162.09
2022-10-19T15:51:50.036Z,101167.63
2022-10-19T15:54:20.073Z,101171.53
2022-10-19T15:56:53.533Z,101175.88
2022-10-19T15:59:24.018Z,101175.47
2022-10-19T16:01:56.113Z,101188.22
2022-10-19T16:04:25.132Z,101192.50
2022-10-19T16:06:53.838Z,101188.03
2022-10-19T16:09:23.392Z,101194.31
2022-10-19T16:11:56.978Z,101195.38
2022-10-19T16:14:27.021Z,101198.69
2022-10-19T16:17:03.422Z,101202.41
2022-10-19T16:19:32.295Z,101207.91
2022-10-19T16:22:01.638Z,101209.72
2022-10-19T16:24:30.533Z,101206.19
2022-10-19T16:26:59.417Z,101213.91
2022-10-19T16:29:28.994Z,101225.44
2022-10-19T16:31:59.858Z,101216.06
2022-10-19T16:34:28.690Z,101222.63
2022-10-19T16:36:57.317Z,101226.22
2022-10-19T16:39:26.459Z,101231.97
2022-10-19T16:41:55.079Z,101241.09
2022-10-19T16:44:23.861Z,101239.59
2022-10-19T16:46:52.420Z,101246.13
2022-10-19T16:49:22.904Z,101242.78
2022-10-19T16:51:54.713Z,101245.69
2022-10-19T16:54:26.828Z,101251.25
2022-10-19T16:56:56.849Z,101244.19
2022-10-19T16:59:25.487Z,101248.84
2022-10-19T17:01:54.215Z,101251.56
2022-10-19T17:04:24.464Z,101249.00
2022-10-19T17:06:53.077Z,101259.31
2022-10-19T17:09:41.648Z,101255.53
2022-10-19T17:12:11.704Z,101264.69
2022-10-19T17:14:41.690Z,101258.66
2022-10-19T17:17:11.498Z,101265.81
2022-10-19T17:19:41.724Z,101267.44
2022-10-19T17:22:10.410Z,101270.34
2022-10-19T17:24:39.444Z,101265.31
2022-10-19T17:27:08.710Z,101267.19
2022-10-19T17:29:37.429Z,101272.78
2022-10-19T17:32:09.268Z,101271.03
2022-10-19T17:34:38.060Z,101271.22
2022-10-19T17:37:08.158Z,101279.25
2022-10-19T17:39:38.051Z,101277.56
2022-10-19T17:42:06.851Z,101280.22
2022-10-19T17:44:38.714Z,101284.81
2022-10-19T17:47:07.539Z,101288.66
2022-10-19T17:49:36.334Z,101286.00
2022-10-19T17:52:05.177Z,101285.38
2022-10-19T17:54:43.574Z,101290.69
2022-10-19T17:57:23.348Z,101287.41
2022-10-19T17:59:53.158Z,101291.88
2022-10-19T18:02:22.144Z,101293.06
2022-10-19T18:04:50.833Z,101302.97
2022-10-19T18:07:22.193Z,101297.06
2022-10-19T18:09:52.319Z,101299.41
2022-10-19T18:12:21.118Z,101300.50
2022-10-19T18:14:49.875Z,101305.19
2022-10-19T18:17:18.511Z,101313.78
2022-10-19T18:19:47.414Z,101315.81
2022-10-19T18:22:16.131Z,101311.19
2022-10-19T18:24:44.876Z,101313.97
2022-10-19T18:27:14.961Z,101317.94
2022-10-19T18:29:43.569Z,101323.31
2022-10-19T18:32:13.170Z,101315.00
2022-10-19T18:34:41.864Z,101322.03
2022-10-19T18:37:10.843Z,101326.75
2022-10-19T18:39:39.561Z,101330.22
2022-10-19T18:42:08.281Z,101335.09
2022-10-19T18:44:38.368Z,101334.94
2022-10-19T18:47:06.964Z,101333.50
2022-10-19T18:49:35.748Z,101339.97
2022-10-19T18:52:05.099Z,101344.19
2022-10-19T18:54:33.784Z,101343.75
2022-10-19T18:57:02.390Z,101344.81
2022-10-19T18:59:30.989Z,101345.69
2022-10-19T19:02:01.217Z,101346.41
2022-10-19T19:04:29.961Z,101355.03
2022-10-19T19:06:58.539Z,101341.81
2022-10-19T19:09:27.185Z,101354.97
2022-10-19T19:11:58.283Z,101347.06
2022-10-19T19:14:26.838Z,101359.34
2022-10-19T19:16:55.516Z,101359.34
2022-10-19T19:19:27.704Z,101352.81
2022-10-19T19:21:56.398Z,101362.44
2022-10-19T19:24:28.391Z,101371.41
2022-10-19T19:26:58.053Z,101375.00
2022-10-19T19:29:28.111Z,101366.66
2022-10-19T19:31:56.851Z,101364.66
2022-10-19T19:34:26.879Z,101370.38
2022-10-19T19:36:55.650Z,101375.56
2022-10-19T19:39:24.447Z,101370.25
2022-10-19T19:41:53.227Z,101376.41
2022-10-19T19:44:25.227Z,101377.69
2022-10-19T19:46:54.070Z,101376.16
2022-10-19T19:49:23.967Z,101373.56
2022-10-19T19:51:54.890Z,101372.84
2022-10-19T19:54:24.509Z,101368.53
2022-10-19T19:56:54.002Z,101373.09
2022-10-19T19:59:22.620Z,101378.66
2022-10-19T20:01:51.276Z,101369.22
2022-10-19T20:04:20.123Z,101374.72
2022-10-19T20:06:48.882Z,101371.13
2022-10-19T20:09:19.621Z,101368.28
2022-10-19T20:11:48.544Z,101371.13
2022-10-19T20:14:17.162Z,101367.09
2022-10-19T20:16:46.053Z,101374.31
2022-10-19T20:19:15.611Z,101377.72
2022-10-19T20:21:44.642Z,101382.47
2022-10-19T20:24:13.400Z,101371.84
2022-10-19T20:26:43.640Z,101372.84
2022-10-19T20:29:12.262Z,101376.63
2022-10-19T20:31:41.569Z,101385.75
2022-10-19T20:34:12.456Z,101383.06
2022-10-19T20:36:41.424Z,101378.75
2022-10-19T20:39:10.167Z,101378.44
2022-10-19T20:41:39.068Z,101381.78
2022-10-19T20:44:09.204Z,101375.41
2022-10-19T20:46:38.055Z,101379.13
2022-10-19T20:49:07.685Z,101377.41
2022-10-19T20:51:38.118Z,101382.72
2022-10-19T20:54:08.900Z,101386.28
2022-10-19T20:56:39.961Z,101366.03
2022-10-19T20:59:10.681Z,101370.50
2022-10-19T21:01:41.484Z,101380.44
2022-10-19T21:04:13.676Z,101384.91
2022-10-19T21:06:45.576Z,101379.50
2022-10-19T21:09:15.655Z,101388.06
2022-10-19T21:11:45.909Z,101380.38
2022-10-19T21:14:21.099Z,101379.97
2022-10-19T21:16:52.840Z,101380.13
2022-10-19T21:19:23.158Z,101380.13
2022-10-19T21:21:55.528Z,101383.44
2022-10-19T21:24:26.325Z,101391.41
2022-10-19T21:26:55.394Z,101380.56
2022-10-19T21:29:27.616Z,101377.28
2022-10-19T21:31:56.576Z,101385.28
2022-10-19T21:34:27.417Z,101382.59
2022-10-19T21:36:56.762Z,101384.56
2022-10-19T21:39:25.645Z,101379.97
2022-10-19T21:41:55.377Z,101386.22
2022-10-19T21:44:25.521Z,101383.56
2022-10-19T21:46:54.303Z,101378.28
2022-10-19T21:49:23.281Z,101384.69
2022-10-19T21:51:54.662Z,101390.84
2022-10-19T21:54:25.780Z,101387.97
2022-10-19T21:56:56.102Z,101385.88
2022-10-19T21:59:26.618Z,101385.03
2022-10-19T22:01:56.586Z,101386.53
2022-10-19T22:04:25.681Z,101389.03
2022-10-19T22:06:54.368Z,101387.31
2022-10-19T22:09:24.025Z,101374.97
2022-10-19T22:11:52.601Z,101374.97
2022-10-19T22:14:22.598Z,101381.84
2022-10-19T22:16:52.678Z,101385.03
2022-10-19T22:19:21.359Z,101374.47
2022-10-19T22:21:50.071Z,101374.31
2022-10-19T22:24:18.618Z,101375.09
2022-10-19T22:26:50.960Z,101377.09
2022-10-19T22:29:20.147Z,101371.44
2022-10-19T22:31:48.676Z,101370.84
2022-10-19T22:34:19.449Z,101371.09
2022-10-19T22:36:48.378Z,101364.78
2022-10-19T22:39:17.288Z,101364.03
2022-10-19T22:41:45.916Z,101364.63
2022-10-19T22:44:14.633Z,101358.34
2022-10-19T22:46:43.217Z,101361.88
2022-10-19T22:49:11.984Z,101362.22
2022-10-19T22:51:42.106Z,101365.00
2022-10-19T22:54:10.683Z,101376.34
2022-10-19T22:56:39.801Z,101378.00
2022-10-19T22:59:08.762Z,101376.13
2022-10-19T23:01:37.992Z,101379.03
2022-10-19T23:04:07.082Z,101380.97
2022-10-19T23:06:35.689Z,101381.94
2022-10-19T23:09:06.305Z,101383.09
2022-10-19T23:11:34.945Z,101390.81
2022-10-19T23:14:03.499Z,101382.03
2022-10-19T23:16:32.253Z,101385.38
2022-10-19T23:19:00.857Z,101386.88
2022-10-19T23:21:29.508Z,101380.66
2022-10-19T23:23:58.202Z,101384.00
2022-10-19T23:26:28.241Z,101375.66
2022-10-19T23:28:56.902Z,101381.78
2022-10-19T23:31:28.625Z,101376.16
2022-10-19T23:33:57.650Z,101373.47
2022-10-19T23:36:28.402Z,101372.91
2022-10-19T23:38:58.265Z,101374.22
2022-10-19T23:41:28.763Z,101380.50
2022-10-19T23:43:57.504Z,101379.59
2022-10-19T23:46:26.456Z,101378.75
2022-10-19T23:49:49.428Z,101390.31
2022-10-19T23:52:33.778Z,101385.19
2022-10-19T23:55:02.342Z,101382.50
2022-10-19T23:57:32.577Z,101393.44
